Carlos Gonzalez

Recruteur - Libertad
2 Déc 2027
Jeudi
Processus

Personnalité

Adaptabilité (12) Ambition (5) Controverse (10) Loyauté (20) Pression (8) Professionnalisme (8) Sportivité (14) Tempérament (2)

Profil

Style d'entraînement Démocratique
Diplôme Continental A
Détermination 9
Gestion des joueurs 11
Motivation 11
Discipline 7
Satisfaction professionnelle
100%
Fatigue
0%
Rôle Recruteur
Salaire 66.4K p/s
Contrat 14.03.2030

Performance

Comportement Bon
Efficacité de l'entraînement
50%
Développement des joueurs
25%
Prévention des blessures
55%
Mise en place tactique
40%

Événements récents

A participé à une réunion de recrutement 7j
A participé à une réunion de recrutement 14j
A participé à une réunion de recrutement 21j
A évalué un joueur 28j
A participé à une réunion de recrutement 28j
A évalué un joueur 28j
A évalué un joueur 28j
A évalué un joueur 35j

Suivi en cours

101
Joueur Club Statut Capacité Confiance Observé Dernière observation Dernier vote
Gerardo Ortiz Nacional Perdu 103 / 113 69% 1 01.12.2027 -
Ignacio Fernández Boston River Actif 98 / 102 40% 2 05.11.2027 -
Matías Canedo Rampla Juniors Actif 84 / 89 40% 1 05.11.2027 -
Celías Ingenthron Vélez Actif 116 / 123 40% 1 05.11.2027 -
Samuel Posada Leones Actif 81 / 97 40% 3 02.11.2027 -
Tiago Gordillo San Miguel Actif 89 / 88 40% 2 02.11.2027 -
Alejandro Almaraz Nueva Chicago Actif 113 / 112 40% 1 02.11.2027 -
Sebastián Ramírez Jaguares Actif 112 / 104 40% 2 01.11.2027 -
Axel Tape Bayer Leverkusen Actif 130 / 122 40% 1 01.11.2027 -
David Valencia Alianza Petrolera Actif 126 / 125 40% 2 27.10.2027 -
Jackson Imbiakha Muranga Seal Actif 67 / 89 40% 1 24.10.2027 -
Olaniyi Saheed Kwara United Actif 91 / 99 40% 1 24.10.2027 -
Mikkel Hope Haugesund Actif 89 / 110 40% 1 24.10.2027 -
Juan Diego Perdomo Depor Actif 82 / 85 40% 2 20.10.2027 -
Joel Ezra Enyimba Actif 106 / 95 40% 1 20.10.2027 -
Daniel Gomez Valledupar Actif 95 / 102 40% 1 20.10.2027 -
Luis Otávio Colorado Rapids Actif 111 / 129 40% 2 15.10.2027 -
David Damboama El-Kanemi Warriors Actif 82 / 83 40% 2 15.10.2027 -
Ricky Atletico Venezuela Actif 95 / 100 40% 2 13.10.2027 -
Hervin Goyes Deportivo Pasto Actif 114 / 120 40% 1 13.10.2027 -
Felipe Obradovich Ferro Carril Oeste Actif 102 / 120 40% 1 13.10.2027 -
Onuorah Onyedika Kun Khalifat Actif 93 / 76 40% 1 08.10.2027 -
Issa Yusuf Shooting Stars Actif 79 / 84 40% 1 08.10.2027 -
Lucas Camejo River Plate Actif 79 / 94 40% 2 06.10.2027 -
Nazareno Roselli Defensa y Justicia Actif 118 / 122 40% 1 06.09.2027 -
Razvan Balasa Crvena Zvezda Actif 141 / 140 40% 1 01.12.2026 -
Carlos Vicente Birmingham Actif 138 / 139 40% 1 01.12.2026 -
Aarón Molinas Defensa y Justicia Actif 127 / 128 40% 3 22.11.2026 -
Reda Khadra Qarabag Actif 130 / 134 40% 2 20.11.2026 -
Stanley Mills Oxford United Actif 123 / 121 40% 1 20.11.2026 -
Matías Fernández Independiente Rivadavia Actif 114 / 113 40% 1 20.11.2026 -
Pedro Porro Tottenham Actif 155 / 160 40% 1 19.11.2026 -
Tomás González Piast Actif 121 / 100 40% 2 18.11.2026 -
Alex Luna Instituto Actif 123 / 127 40% 1 18.11.2026 -
Derensili Sanches Fernandes Huddersfield Town Actif 113 / 121 40% 1 18.11.2026 -
Ulises Sánchez Gimnasia y Esgrima Actif 130 / 129 40% 1 16.11.2026 -
Stefano Moreyra Independiente Rivadavia Actif 113 / 115 40% 1 14.11.2026 -
Imanol Machuca Independiente Actif 124 / 123 40% 1 14.11.2026 -
Enzo Copetti Rosario Central Actif 125 / 126 40% 2 11.11.2026 -
Alexis Cuello San Lorenzo Actif 118 / 112 40% 2 11.11.2026 -
Marcelino Moreno Lanús Actif 139 / 130 40% 1 11.11.2026 -
Vicente Poggi Godoy Cruz Actif 121 / 127 40% 1 09.11.2026 -
Martín Garay Tigre Actif 126 / 112 40% 1 07.11.2026 -
Alexander Díaz Deportivo Riestra Actif 116 / 111 40% 1 07.11.2026 -
Jonás Acevedo Instituto Actif 119 / 115 40% 1 07.11.2026 -
Ignacio Abraham Banfield Actif 129 / 124 40% 1 07.11.2026 -
Marcelo Allende Mamelodi Sundowns Actif 122 / 138 40% 2 03.11.2026 -
Julián Palacios Unión de Santa Fe Actif 118 / 118 40% 1 03.11.2026 -
Santiago González Tigre Actif 120 / 124 40% 1 30.10.2026 -
Lewis Morgan SuperSport United Actif 131 / 115 40% 1 29.10.2026 -
Jhonatan Candia Barracas Central Actif 117 / 129 40% 2 28.10.2026 -
Hernán de la Fuente Instituto Actif 121 / 120 40% 1 28.10.2026 -
Brais Méndez Columbus Crew Actif 158 / 130 40% 3 27.10.2026 -
Sebastián Medina Tigre Actif 111 / 106 40% 1 27.10.2026 -
Augusto Schott Talleres Actif 125 / 117 40% 1 27.10.2026 -
Martín Ortega Newell's Old Boys Actif 120 / 123 40% 1 27.10.2026 -
Matías Reali San Lorenzo Actif 117 / 121 40% 1 26.10.2026 -
Diego Luna Real Salt Lake Actif 136 / 129 40% 2 23.10.2026 -
Yuber Quiñónes Deportivo Pereira Actif 115 / 116 40% 1 23.10.2026 -
Rubén Duarte Legia Actif 120 / 124 40% 2 19.10.2026 -
Conrad Wallem Austria Wien Actif 123 / 119 40% 1 19.10.2026 -
Tadeo Allende Inter Miami CF Actif 121 / 120 40% 2 18.10.2026 -
Sayfallah Ltaief Cracovia Actif 121 / 124 40% 2 18.10.2026 -
Franco Cristaldo Talleres Actif 125 / 116 40% 2 16.10.2026 -
Ralph Orquin Seattle Sounders Actif 116 / 114 40% 2 16.10.2026 -
Aldahir Pérez Tijuana Actif 115 / 111 40% 1 15.10.2026 -
Enzo Avaro Odd Actif 123 / 122 40% 1 15.10.2026 -
Gorka Gorosabel Real Sociedad Actif 118 / 133 40% 1 15.10.2026 -
Breel Embolo Atlanta United FC Actif 137 / 144 40% 2 13.10.2026 -
Bamba Dieng Crvena Zvezda Actif 123 / 112 40% 1 12.10.2026 -
Juergen Elitím Bohemians 1905 Actif 105 / 99 40% 1 08.10.2026 -
Iván Angulo Orlando City Actif 114 / 124 40% 1 07.10.2026 -
Telasco Segovia Inter Miami CF Actif 139 / 147 40% 1 07.10.2026 -
Facundo Mura Inter Miami CF Actif 124 / 139 40% 4 05.10.2026 -
Sead Hakšabanović Malmo FF Actif 133 / 112 40% 1 04.10.2026 -
Quinn Sullivan Philadelphia Union Actif 116 / 113 40% 1 01.10.2026 -
Pavel Bucha FC Cincinnati Actif 134 / 116 40% 1 27.09.2026 -
Cheikh Sabaly Vancouver Whitecaps Actif 118 / 139 40% 1 24.09.2026 -
Andrés Herrera Columbus Crew Actif 134 / 126 40% 1 20.09.2026 -
Paul Arriola Seattle Sounders Actif 111 / 126 40% 2 18.09.2026 -
Francisco González Metilli Belgrano Actif 131 / 114 40% 1 18.09.2026 -
Sergio Reguilón Inter Miami CF Actif 146 / 120 40% 1 14.09.2026 -
Joaquín Pereyra Minnesota United FC Actif 130 / 111 40% 1 14.09.2026 -
Cristian Espinoza Nashville SC Actif 144 / 128 40% 1 10.09.2026 -
Elias Achouri San Diego Football Club Actif 136 / 140 40% 1 10.09.2026 -
Angelo Gattermayer Wolfsberger AC Actif 127 / 105 40% 1 08.09.2026 -
Sergi Palencia Los Angeles Football Club Actif 130 / 128 40% 1 07.09.2026 -
Lucas Souto Defensa y Justicia Actif 125 / 120 40% 1 26.08.2026 -
Aliou Dieng Valencia Actif 126 / 137 40% 1 26.08.2026 -
João Gomes Aston Villa Actif 140 / 133 40% 1 24.08.2026 -
Djordje Mihailović Toronto FC Actif 131 / 143 40% 1 23.08.2026 -
Jesus Ferreira Seattle Sounders Actif 140 / 118 40% 1 23.08.2026 -
Richie Laryea Toronto FC Actif 138 / 107 40% 1 23.08.2026 -
Steven Alzate Atlanta United FC Actif 123 / 128 40% 1 22.08.2026 -
Bryan Ramírez FC Cincinnati Actif 117 / 108 40% 1 22.08.2026 -
Antonio Galeano Remo Stars Actif 120 / 107 40% 1 17.08.2026 -
Khuliso Mudau Mamelodi Sundowns Actif 131 / 114 40% 1 17.08.2026 -
Jairo Concha Universitario Actif 125 / 123 40% 1 16.08.2026 -
Mathías Bernatene Liverpool Montevideo Actif 95 / 88 40% 1 03.08.2026 -
Diego Romero Universitario Actif 124 / 135 40% 1 03.08.2026 -
Mateu Morey Girona Actif 141 / 126 40% 1 01.08.2026 -